Time;durP1;ratioP1;P1;durP2;ratioP2;P2;SDS_P1;SDS_P2;PMS_P1;PMS_P2;Temp;Humidity;BMP_temperature;BMP_pressure;BME280_temperature;BME280_humidity;BME280_pressure;Samples;Min_cycle;Max_cycle;Signal;HPM_P1;HPM_P2
2021/09/24 00:01:33;;;;;;;9.10;4.05;;;;;;;17.19;100.00;97444.22;4830702;29;20700;-83
2021/09/24 00:04:00;;;;;;;8.60;4.43;;;;;;;17.13;100.00;97434.75;4835667;29;20054;-83
2021/09/24 00:06:27;;;;;;;7.43;4.25;;;;;;;17.16;100.00;97440.28;4819907;29;20118;-85
2021/09/24 00:08:54;;;;;;;9.85;4.40;;;;;;;17.09;100.00;97434.69;4818263;29;20141;-85
2021/09/24 00:11:23;;;;;;;8.20;4.80;;;;;;;17.06;100.00;97442.84;4817406;29;20113;-83
2021/09/24 00:13:54;;;;;;;8.68;4.78;;;;;;;17.03;100.00;97444.34;4831311;29;20092;-82
2021/09/24 00:16:24;;;;;;;9.15;5.00;;;;;;;16.95;100.00;97450.81;4830004;29;20042;-82
2021/09/24 00:18:54;;;;;;;10.10;5.25;;;;;;;16.83;100.00;97468.16;4816188;29;20074;-85
2021/09/24 00:21:20;;;;;;;7.28;4.53;;;;;;;16.27;100.00;97479.75;4830096;29;20161;-82
2021/09/24 00:23:52;;;;;;;4.50;4.05;;;;;;;15.84;100.00;97491.59;4829757;29;20050;-82
2021/09/24 00:26:18;;;;;;;4.97;2.90;;;;;;;15.28;100.00;97493.63;4814506;29;20077;-83
2021/09/24 00:28:51;;;;;;;3.58;3.00;;;;;;;14.73;100.00;97497.91;4814775;29;20129;-82
2021/09/24 00:31:18;;;;;;;3.97;2.60;;;;;;;14.30;100.00;97511.34;4815213;29;20118;-83
2021/09/24 00:33:48;;;;;;;3.17;2.40;;;;;;;14.17;100.00;97524.16;4815644;29;20061;-83
2021/09/24 00:36:17;;;;;;;4.40;1.55;;;;;;;13.91;100.00;97525.63;4815380;29;20050;-81
2021/09/24 00:38:44;;;;;;;4.20;0.90;;;;;;;13.61;100.00;97539.41;4846562;29;20046;-82
2021/09/24 00:41:11;;;;;;;3.67;0.90;;;;;;;13.24;100.00;97529.53;4830743;29;20050;-82
2021/09/24 00:43:40;;;;;;;2.72;0.82;;;;;;;13.05;100.00;97534.66;4829874;29;20083;-83
2021/09/24 00:46:15;;;;;;;2.72;1.00;;;;;;;12.95;100.00;97537.78;4814597;29;20755;-84
2021/09/24 00:48:42;;;;;;;8.43;1.20;;;;;;;13.13;100.00;97550.13;4815934;29;20050;-83
2021/09/24 00:51:10;;;;;;;7.35;1.40;;;;;;;13.03;100.00;97553.22;4815642;29;20050;-82
2021/09/24 00:53:40;;;;;;;2.20;1.23;;;;;;;12.74;100.00;97529.63;4814313;29;20518;-84
2021/09/24 00:56:08;;;;;;;2.30;1.00;;;;;;;12.66;100.00;97541.34;4814883;29;20156;-84
2021/09/24 00:58:35;;;;;;;2.22;0.82;;;;;;;12.44;100.00;97518.00;4813668;29;20085;-81
2021/09/24 01:01:05;;;;;;;3.22;1.20;;;;;;;12.39;100.00;97515.47;4829463;29;20064;-83
2021/09/24 01:03:35;;;;;;;1.40;1.00;;;;;;;12.47;100.00;97522.78;4821939;29;20050;-82
2021/09/24 01:06:02;;;;;;;6.15;1.20;;;;;;;12.43;100.00;97508.28;4813637;29;20046;-86
2021/09/24 01:08:31;;;;;;;3.70;1.20;;;;;;;12.66;100.00;97529.69;4828722;29;20050;-85
2021/09/24 01:11:00;;;;;;;2.40;0.73;;;;;;;12.61;100.00;97521.72;4814219;29;20061;-84
2021/09/24 01:13:27;;;;;;;2.45;0.70;;;;;;;12.60;100.00;97517.41;4829052;29;20081;-84
2021/09/24 01:15:54;;;;;;;4.32;0.82;;;;;;;12.56;100.00;97532.78;4813708;29;20569;-84
2021/09/24 01:18:21;;;;;;;1.52;0.80;;;;;;;12.69;100.00;97534.47;4822159;29;20057;-84
2021/09/24 01:20:50;;;;;;;4.75;1.00;;;;;;;12.82;100.00;97538.84;4814153;29;20057;-86
2021/09/24 01:23:17;;;;;;;5.90;1.10;;;;;;;12.84;100.00;97542.81;4829835;29;20137;-84
2021/09/24 01:25:44;;;;;;;6.70;1.52;;;;;;;12.86;100.00;97535.13;4829664;29;20380;-85
2021/09/24 01:28:11;;;;;;;4.95;1.27;;;;;;;13.03;100.00;97537.69;4828986;29;20106;-85
2021/09/24 01:30:38;;;;;;;6.38;1.30;;;;;;;12.99;100.00;97519.66;4829863;29;20108;-86
2021/09/24 01:33:08;;;;;;;3.25;1.50;;;;;;;13.01;100.00;97537.22;4829029;29;20473;-85
2021/09/24 01:35:35;;;;;;;2.60;1.50;;;;;;;13.16;100.00;97522.28;4844345;29;20284;-86
2021/09/24 01:38:05;;;;;;;3.42;1.65;;;;;;;13.23;100.00;97544.28;4828395;29;20140;-85
2021/09/24 01:40:34;;;;;;;6.50;1.83;;;;;;;13.21;100.00;97532.94;4799482;29;20050;-84
2021/09/24 01:43:06;;;;;;;7.80;1.73;;;;;;;13.23;100.00;97522.53;4828003;29;20050;-85
2021/09/24 01:45:35;;;;;;;4.25;1.90;;;;;;;13.37;100.00;97544.75;4828186;29;20054;-85
2021/09/24 01:48:04;;;;;;;3.33;1.50;;;;;;;13.29;100.00;97526.59;4843576;29;20038;-85
2021/09/24 01:50:34;;;;;;;4.32;1.40;;;;;;;13.35;100.00;97532.63;4828319;29;20053;-87
2021/09/24 01:53:11;;;;;;;3.95;1.40;;;;;;;13.38;100.00;97535.50;4828476;29;20132;-84
2021/09/24 01:55:38;;;;;;;6.22;1.40;;;;;;;13.36;100.00;97528.81;4829593;29;20064;-85
2021/09/24 01:58:12;;;;;;;6.25;2.10;;;;;;;13.39;100.00;97531.66;4844268;29;20071;-86
2021/09/24 02:00:45;;;;;;;2.85;2.20;;;;;;;13.46;100.00;97531.09;4828816;29;20419;-85
2021/09/24 02:03:13;;;;;;;4.68;2.50;;;;;;;13.63;100.00;97542.59;4829810;29;20062;-85
2021/09/24 02:05:45;;;;;;;5.50;2.40;;;;;;;13.62;100.00;97537.50;4843793;29;20030;-83
2021/09/24 02:08:12;;;;;;;4.65;2.58;;;;;;;13.76;100.00;97540.69;4842678;29;20062;-91
2021/09/24 02:10:49;;;;;;;6.43;3.13;;;;;;;13.77;100.00;97530.59;4832904;29;20050;-83
2021/09/24 02:13:19;;;;;;;;;;;;;;;13.81;100.00;97535.03;4832749;29;20057;-85
2021/09/24 02:15:54;;;;;;;6.63;2.70;;;;;;;13.72;100.00;97515.28;4830945;29;19924;-85
2021/09/24 02:18:24;;;;;;;5.50;2.70;;;;;;;13.78;100.00;97534.91;4831417;29;20145;-84
2021/09/24 02:21:05;;;;;;;6.90;3.05;;;;;;;13.78;100.00;97526.75;4830811;29;20058;-85
2021/09/24 02:23:38;;;;;;;5.13;2.70;;;;;;;13.81;100.00;97526.84;4832842;29;20060;-84
2021/09/24 02:26:08;;;;;;;9.00;2.90;;;;;;;13.83;100.00;97543.66;4834178;29;20137;-83
2021/09/24 02:28:37;;;;;;;6.97;2.53;;;;;;;13.90;100.00;97540.38;4834319;29;20141;-84
2021/09/24 02:31:11;;;;;;;6.32;2.92;;;;;;;13.96;100.00;97561.56;4834706;29;20110;-83
2021/09/24 02:33:42;;;;;;;4.70;2.60;;;;;;;13.89;100.00;97555.91;4834539;29;20061;-84
2021/09/24 02:36:21;;;;;;;6.75;2.80;;;;;;;14.06;100.00;97557.63;4850295;29;20057;-84
2021/09/24 02:38:49;;;;;;;9.80;2.58;;;;;;;13.92;100.00;97555.22;4835105;29;20137;-84
2021/09/24 02:41:16;;;;;;;7.57;2.95;;;;;;;13.90;100.00;97553.97;4839500;29;20065;-85
2021/09/24 02:43:44;;;;;;;7.03;2.95;;;;;;;13.81;100.00;97548.63;4834498;29;20081;-84
2021/09/24 02:46:11;;;;;;;8.32;3.50;;;;;;;13.98;100.00;97545.72;4818867;29;20084;-86
2021/09/24 02:48:38;;;;;;;10.93;3.33;;;;;;;13.95;100.00;97560.00;4818461;29;20371;-85
2021/09/24 02:51:05;;;;;;;6.78;2.95;;;;;;;13.99;100.00;97574.50;4833262;29;20054;-85
2021/09/24 02:53:38;;;;;;;8.48;3.17;;;;;;;13.97;100.00;97554.19;4849160;29;20061;-83
2021/09/24 02:56:08;;;;;;;6.82;2.80;;;;;;;14.02;100.00;97554.78;4833959;29;20506;-85
2021/09/24 02:58:40;;;;;;;5.20;2.63;;;;;;;14.00;100.00;97554.34;4833289;29;20054;-85
2021/09/24 03:01:11;;;;;;;8.30;3.00;;;;;;;13.92;100.00;97568.03;4827349;29;20034;-85
2021/09/24 03:03:41;;;;;;;12.82;2.70;;;;;;;13.97;100.00;97576.78;4851732;29;20034;-84
2021/09/24 03:06:12;;;;;;;7.22;2.17;;;;;;;14.09;100.00;97570.56;4852435;29;20046;-88
2021/09/24 03:08:44;;;;;;;6.88;2.50;;;;;;;13.99;100.00;97566.34;4851490;29;20042;-86
2021/09/24 03:11:11;;;;;;;7.38;2.78;;;;;;;14.04;100.00;97579.72;4851638;29;20063;-85
2021/09/24 03:13:44;;;;;;;12.55;2.45;;;;;;;13.99;100.00;97574.50;4851041;29;20056;-85
2021/09/24 03:16:20;;;;;;;11.20;2.67;;;;;;;13.95;100.00;97580.97;4850507;29;20102;-85
2021/09/24 03:18:50;;;;;;;4.55;2.20;;;;;;;14.13;100.00;97594.03;4849614;29;20149;-89
2021/09/24 03:21:28;;;;;;;9.02;2.58;;;;;;;14.11;100.00;97584.63;4831612;29;20065;-88
2021/09/24 03:23:58;;;;;;;8.82;2.70;;;;;;;13.92;100.00;97577.00;4840653;29;20087;-86
2021/09/24 03:26:30;;;;;;;16.17;2.70;;;;;;;14.03;100.00;97602.66;4837893;29;20102;-87
2021/09/24 03:29:00;;;;;;;9.50;2.65;;;;;;;14.00;100.00;97588.91;4834860;29;20049;-84
2021/09/24 03:31:31;;;;;;;8.85;2.45;;;;;;;13.85;100.00;97579.50;4831249;29;20102;-84
2021/09/24 03:33:58;;;;;;;6.20;2.17;;;;;;;13.93;100.00;97594.94;4834289;29;20050;-84
2021/09/24 03:36:27;;;;;;;9.02;2.63;;;;;;;13.94;100.00;97593.78;4830958;29;20069;-85
2021/09/24 03:38:54;;;;;;;6.70;2.70;;;;;;;13.85;100.00;97589.56;4848554;29;20163;-81
2021/09/24 03:41:23;;;;;;;7.07;2.63;;;;;;;13.89;100.00;97591.28;4832779;29;20064;-88
2021/09/24 03:43:51;;;;;;;7.28;2.55;;;;;;;13.94;100.00;97593.78;4815400;29;20087;-85
2021/09/24 03:46:18;;;;;;;10.40;2.55;;;;;;;14.19;100.00;97613.69;4830219;29;20109;-83
2021/09/24 03:48:47;;;;;;;8.95;3.03;;;;;;;14.14;100.00;97600.28;4833902;29;20054;-83
2021/09/24 03:51:14;;;;;;;7.45;2.70;;;;;;;14.14;100.00;97605.75;4837187;29;20065;-85
2021/09/24 03:53:40;;;;;;;7.85;2.13;;;;;;;14.07;100.00;97605.47;4847807;29;20057;-82
2021/09/24 03:56:07;;;;;;;12.00;2.33;;;;;;;14.07;100.00;97605.47;4848184;29;20194;-85
2021/09/24 03:58:34;;;;;;;8.75;2.10;;;;;;;14.06;100.00;97614.81;4841033;29;20051;-84
2021/09/24 04:01:01;;;;;;;10.70;2.45;;;;;;;13.61;100.00;97606.63;4848233;29;20053;-84
2021/09/24 04:03:31;;;;;;;10.90;2.40;;;;;;;13.61;100.00;97615.56;4833398;29;20053;-85
2021/09/24 04:05:58;;;;;;;14.23;2.97;;;;;;;13.45;100.00;97611.88;4848829;29;20090;-86
2021/09/24 04:08:25;;;;;;;11.18;2.15;;;;;;;13.40;100.00;97639.28;4830274;29;20140;-83
2021/09/24 04:10:53;;;;;;;9.15;2.30;;;;;;;13.38;100.00;97646.97;4848639;29;20053;-83
2021/09/24 04:13:23;;;;;;;11.45;2.78;;;;;;;13.39;100.00;97640.41;4859740;29;20061;-86
2021/09/24 04:15:50;;;;;;;15.20;3.03;;;;;;;13.41;100.00;97642.78;4869525;29;20136;-85
2021/09/24 04:18:20;;;;;;;12.95;2.15;;;;;;;13.32;100.00;97634.69;4868390;29;20510;-87
2021/09/24 04:20:53;;;;;;;11.35;2.85;;;;;;;13.49;100.00;97639.22;4833217;29;20053;-85
2021/09/24 04:23:29;;;;;;;12.93;2.78;;;;;;;13.44;100.00;97647.56;4860631;29;20133;-84
2021/09/24 04:25:59;;;;;;;9.18;2.40;;;;;;;13.42;100.00;97664.22;4862100;29;20049;-83
2021/09/24 04:28:26;;;;;;;14.82;2.25;;;;;;;13.50;100.00;97660.63;4861427;29;20045;-83
2021/09/24 04:30:53;;;;;;;10.23;2.58;;;;;;;13.53;100.00;97651.81;4844817;29;20053;-83
2021/09/24 04:33:22;;;;;;;8.40;2.25;;;;;;;13.58;100.00;97664.41;4843483;29;20121;-82
2021/09/24 04:35:51;;;;;;;7.90;2.53;;;;;;;13.51;100.00;97645.91;4843942;29;20049;-84
2021/09/24 04:38:18;;;;;;;10.77;2.70;;;;;;;13.56;100.00;97658.50;4829355;29;20148;-82
2021/09/24 04:40:45;;;;;;;8.55;2.15;;;;;;;13.48;100.00;97659.38;4842974;29;20152;-83
2021/09/24 04:48:27;;;;;;;;;;;;;;;;;;;;;
2021/09/24 04:56:15;;;;;;;8.60;2.30;;;;;;;13.34;100.00;97656.94;4695750;30;20046;-85
2021/09/24 05:03:33;;;;;;;15.68;2.70;;;;;;;13.17;100.00;97643.47;4683179;30;20050;-84
2021/09/24 05:07:38;;;;;;;;;;;;;;;;;;;;;
2021/09/24 05:10:55;;;;;;;15.35;2.95;;;;;;;13.32;100.00;97659.19;4676121;30;20050;-88
2021/09/24 05:13:42;;;;;;;;;;;;;;;;;;;;;
2021/09/24 05:16:31;;;;;;;9.30;2.65;;;;;;;13.14;100.00;97659.66;4767986;30;20402;-86
2021/09/24 05:18:59;;;;;;;7.93;3.05;;;;;;;13.20;100.00;97655.59;4752756;29;20263;-86
2021/09/24 05:21:31;;;;;;;10.80;3.25;;;;;;;13.21;100.00;97670.78;4808345;29;20122;-83
2021/09/24 05:24:10;;;;;;;12.40;3.10;;;;;;;13.17;100.00;97667.91;4826771;29;20050;-86
2021/09/24 05:26:46;;;;;;;12.50;3.00;;;;;;;13.23;100.00;97679.41;4828650;29;20054;-83
2021/09/24 05:29:17;;;;;;;18.05;3.10;;;;;;;13.22;100.00;97677.81;4829493;29;20102;-86
2021/09/24 05:31:51;;;;;;;15.25;3.50;;;;;;;13.14;100.00;97667.81;4836906;29;20049;-88
2021/09/24 05:34:19;;;;;;;15.93;3.60;;;;;;;13.13;100.00;97667.00;4813456;29;20054;-87
2021/09/24 05:36:55;;;;;;;10.07;3.17;;;;;;;13.12;100.00;97676.28;4813610;29;20211;-85
2021/09/24 05:39:23;;;;;;;14.60;3.70;;;;;;;13.17;100.00;97673.34;4821190;29;20068;-87
2021/09/24 05:41:58;;;;;;;14.10;3.20;;;;;;;13.15;100.00;97681.06;4830989;29;20041;-89
2021/09/24 05:44:29;;;;;;;6.97;3.20;;;;;;;13.39;100.00;97680.41;4845368;29;20130;-87
2021/09/24 05:46:55;;;;;;;11.80;3.38;;;;;;;13.23;100.00;97679.41;4846034;29;20054;-86
2021/09/24 05:49:23;;;;;;;14.77;3.38;;;;;;;13.22;100.00;97677.81;4816178;29;20053;-86
2021/09/24 05:51:53;;;;;;;14.10;2.97;;;;;;;13.36;100.00;97683.78;4828600;29;20056;-85
2021/09/24 05:54:20;;;;;;;16.95;3.88;;;;;;;13.46;100.00;97686.91;4917792;23;20051;-85
2021/09/24 05:56:47;;;;;;;10.43;3.13;;;;;;;13.46;100.00;97677.94;4905548;29;20055;-84
2021/09/24 05:59:14;;;;;;;15.15;2.65;;;;;;;13.44;100.00;97681.00;4917782;29;20429;-84
2021/09/24 06:01:45;;;;;;;10.95;2.92;;;;;;;13.45;100.00;97673.63;4918802;29;20040;-85
2021/09/24 06:04:19;;;;;;;9.25;2.72;;;;;;;13.66;100.00;97688.00;4902178;29;20151;-84
2021/09/24 06:06:46;;;;;;;8.63;3.08;;;;;;;13.55;100.00;97682.19;4901784;29;20052;-84
2021/09/24 06:09:14;;;;;;;8.85;3.22;;;;;;;13.59;100.00;97679.59;4890744;29;20463;-84
2021/09/24 06:11:41;;;;;;;10.35;2.72;;;;;;;13.65;100.00;97678.28;4920530;29;20083;-83
2021/09/24 06:14:12;;;;;;;11.68;3.20;;;;;;;13.62;100.00;97671.59;4920532;29;20567;-84
2021/09/24 06:16:42;;;;;;;8.38;2.60;;;;;;;13.77;100.00;97691.13;4919906;29;20061;-85
2021/09/24 06:19:14;;;;;;;13.40;2.78;;;;;;;13.78;100.00;97698.16;4927174;29;20035;-84
2021/09/24 06:21:45;;;;;;;7.60;2.33;;;;;;;13.74;100.00;97690.66;4921593;29;20074;-85
2021/09/24 06:24:12;;;;;;;9.23;2.28;;;;;;;13.83;100.00;97700.69;4929055;29;20111;-85
2021/09/24 06:26:40;;;;;;;7.90;2.60;;;;;;;13.99;100.00;97696.22;4939688;29;20036;-85
2021/09/24 06:29:08;;;;;;;10.10;2.45;;;;;;;13.86;100.00;97681.75;4918025;29;20052;-87
2021/09/24 06:31:45;;;;;;;14.15;2.65;;;;;;;14.03;100.00;97694.41;4939872;29;20990;-85
2021/09/24 06:34:35;;;;;;;11.02;2.78;;;;;;;13.91;100.00;97683.50;4922444;29;20055;-83
2021/09/24 06:37:07;;;;;;;9.77;2.80;;;;;;;14.03;100.00;97697.13;4927140;29;20043;-84
2021/09/24 06:39:36;;;;;;;8.85;2.67;;;;;;;14.18;100.00;97712.81;4931652;29;20058;-84
2021/09/24 06:42:03;;;;;;;12.80;2.63;;;;;;;14.14;100.00;97701.03;4924490;29;20063;-85
2021/09/24 06:44:31;;;;;;;8.18;2.25;;;;;;;13.97;100.00;97693.00;4924008;29;20055;-84
2021/09/24 06:47:03;;;;;;;8.70;2.50;;;;;;;14.19;100.00;97717.16;4923301;29;20048;-84
2021/09/24 06:49:37;;;;;;;13.70;2.67;;;;;;;14.16;100.00;97691.41;4923521;29;20122;-84
2021/09/24 06:52:06;;;;;;;9.90;2.60;;;;;;;14.37;100.00;97687.84;4939748;29;20118;-84
2021/09/24 06:54:33;;;;;;;9.05;2.50;;;;;;;14.50;100.00;97678.53;4910385;29;20580;-85
2021/09/24 06:57:08;;;;;;;12.48;2.50;;;;;;;14.50;100.00;97689.44;4903969;29;20048;-86
2021/09/24 06:59:35;;;;;;;15.90;2.35;;;;;;;14.58;100.00;97707.63;4911536;29;20051;-85
2021/09/24 07:02:03;;;;;;;7.55;2.05;;;;;;;14.61;100.00;97701.47;4904047;29;20059;-85
2021/09/24 07:04:40;;;;;;;5.93;1.95;;;;;;;14.61;100.00;97715.09;4906928;29;20052;-86
2021/09/24 07:07:10;;;;;;;8.32;2.42;;;;;;;14.62;100.00;97712.03;4920111;29;20142;-85
2021/09/24 07:10:12;;;;;;;;;;;;;;;14.87;100.00;97716.38;4918340;29;20115;-84
2021/09/24 07:12:48;;;;;;;7.93;2.40;;;;;;;14.76;100.00;97703.56;4925576;29;19923;-84
2021/09/24 07:15:24;;;;;;;7.22;2.15;;;;;;;14.55;100.00;97700.13;4921696;29;20651;-84
2021/09/24 07:18:07;;;;;;;6.60;2.00;;;;;;;14.75;100.00;97712.84;4925137;29;20061;-85
2021/09/24 07:20:38;;;;;;;8.35;2.20;;;;;;;14.87;100.00;97705.47;4915831;29;20812;-84
2021/09/24 07:23:21;;;;;;;9.07;2.42;;;;;;;15.16;100.00;97720.81;4903513;29;20828;-85
2021/09/24 07:26:05;;;;;;;9.75;2.55;;;;;;;15.29;100.00;97730.56;4903927;29;20044;-85
2021/09/24 07:28:32;;;;;;;6.95;2.38;;;;;;;15.15;100.00;97741.00;4921586;29;20051;-83
2021/09/24 07:31:20;;;;;;;6.75;2.17;;;;;;;15.18;100.00;97728.63;4956019;29;20035;-85
2021/09/24 07:33:59;;;;;;;6.60;1.90;;;;;;;15.18;100.00;97734.09;4924651;29;20076;-85
2021/09/24 07:36:32;;;;;;;7.45;2.20;;;;;;;15.30;100.00;97729.44;4925764;28;20103;-87
2021/09/24 07:39:21;;;;;;;7.10;2.10;;;;;;;15.53;100.00;97733.28;4940299;29;20051;-85
2021/09/24 07:42:20;;;;;;;9.15;2.13;;;;;;;15.55;100.00;97747.38;4940952;29;20079;-85
2021/09/24 07:44:58;;;;;;;10.45;2.13;;;;;;;15.80;100.00;97737.19;4927000;29;20064;-86
2021/09/24 07:47:48;;;;;;;8.20;1.70;;;;;;;15.94;100.00;97731.34;4917763;29;20312;-85
2021/09/24 07:50:19;;;;;;;8.38;1.40;;;;;;;15.79;100.00;97730.16;4908018;29;20075;-86
2021/09/24 07:53:13;;;;;;;4.70;1.30;;;;;;;15.69;100.00;97762.59;4929911;23;20666;-77
2021/09/24 07:55:40;;;;;;;8.98;1.70;;;;;;;15.78;100.00;97735.94;4904184;29;20074;-78
2021/09/24 07:58:08;;;;;;;4.85;1.38;;;;;;;15.76;100.00;97744.50;4924696;29;20073;-78
2021/09/24 08:00:36;;;;;;;8.95;1.25;;;;;;;16.31;100.00;97751.13;4917801;29;20058;-77
2021/09/24 08:03:03;;;;;;;3.17;0.93;;;;;;;16.27;100.00;97742.81;4917259;29;20560;-79
2021/09/24 08:05:31;;;;;;;4.35;0.95;;;;;;;16.58;100.00;97736.63;4900320;29;20055;-79
2021/09/24 08:07:58;;;;;;;3.03;0.98;;;;;;;16.56;100.00;97747.94;4923077;29;20052;-78
2021/09/24 08:10:25;;;;;;;5.88;1.00;;;;;;;16.54;100.00;97743.97;4916487;29;20147;-79
2021/09/24 08:12:52;;;;;;;7.38;0.98;;;;;;;16.78;100.00;97749.25;4913459;29;20047;-77
2021/09/24 08:15:19;;;;;;;7.07;1.05;;;;;;;16.72;100.00;97739.75;4912812;29;20727;-76
2021/09/24 08:17:46;;;;;;;5.93;0.98;;;;;;;16.59;100.00;97755.44;4913997;29;20105;-78
2021/09/24 08:20:14;;;;;;;9.40;1.17;;;;;;;16.60;100.00;97757.00;4914957;29;20055;-78
2021/09/24 08:22:41;;;;;;;3.28;0.80;;;;;;;16.41;100.00;97765.06;4898063;29;20048;-77
2021/09/24 08:25:10;;;;;;;4.38;0.88;;;;;;;16.79;100.00;97756.31;4926940;29;20059;-80
2021/09/24 08:27:37;;;;;;;4.95;1.00;;;;;;;17.04;100.00;97762.41;4919689;29;20052;-77
2021/09/24 08:30:07;;;;;;;3.08;0.70;;;;;;;17.09;100.00;97754.72;4915046;29;20070;-77
2021/09/24 08:32:38;;;;;;;4.20;1.00;;;;;;;17.29;100.00;97759.13;4917845;29;20052;-76
2021/09/24 08:35:07;;;;;;;4.32;1.10;;;;;;;17.45;100.00;97764.56;4912393;29;20048;-77
2021/09/24 08:37:35;;;;;;;3.83;0.88;;;;;;;17.43;100.00;97755.91;4916397;29;20507;-77
2021/09/24 08:40:03;;;;;;;2.97;0.88;;;;;;;17.48;100.00;97760.31;4920065;29;20066;-77
2021/09/24 08:42:30;;;;;;;1.73;0.50;;;;;;;17.22;100.00;97772.63;4919390;29;20513;-78
2021/09/24 08:44:57;;;;;;;3.40;0.82;;;;;;;16.94;100.00;97760.19;4913961;29;20036;-79
2021/09/24 08:47:27;;;;;;;5.18;0.80;;;;;;;16.99;100.00;97762.66;4916111;29;20051;-78
2021/09/24 08:49:54;;;;;;;4.18;0.95;;;;;;;16.95;100.00;97764.53;4919703;29;20497;-79
2021/09/24 08:52:21;;;;;;;4.50;0.70;;;;;;;16.84;100.00;97772.47;4906352;29;20052;-78
2021/09/24 08:54:48;;;;;;;3.40;0.80;;;;;;;16.82;100.00;97766.56;4905059;29;20052;-79
2021/09/24 08:57:16;;;;;;;3.85;0.80;;;;;;;16.96;100.00;97771.56;4905481;29;20055;-78
2021/09/24 08:59:43;;;;;;;4.68;1.05;;;;;;;17.11;100.00;97771.56;4902269;29;20068;-80
2021/09/24 09:02:10;;;;;;;8.65;1.10;;;;;;;17.13;100.00;97774.78;4922555;29;20458;-79
2021/09/24 09:04:41;;;;;;;3.65;1.30;;;;;;;17.19;100.00;97767.88;4905393;29;20651;-79
2021/09/24 09:07:10;;;;;;;2.20;0.90;;;;;;;16.98;100.00;97772.81;4922286;29;20043;-77
2021/09/24 09:09:44;;;;;;;4.22;0.90;;;;;;;16.83;100.00;97763.47;4901339;29;20135;-78
2021/09/24 09:12:23;;;;;;;3.17;0.90;;;;;;;16.74;100.00;97771.06;4917799;29;20397;-79
2021/09/24 09:15:01;;;;;;;4.20;0.90;;;;;;;16.87;100.00;97769.03;4924834;29;20412;-79
2021/09/24 09:17:36;;;;;;;2.97;0.88;;;;;;;16.77;100.00;97775.81;4927286;29;20477;-79
2021/09/24 09:20:09;;;;;;;5.38;1.23;;;;;;;16.85;100.00;97771.34;4898121;29;20067;-79
2021/09/24 09:22:36;;;;;;;4.63;1.27;;;;;;;17.18;100.00;97784.66;4916303;29;20059;-78
2021/09/24 09:25:04;;;;;;;4.68;0.98;;;;;;;17.50;100.00;97763.50;4920343;29;20096;-79
2021/09/24 09:27:31;;;;;;;5.47;1.00;;;;;;;17.45;100.00;97776.31;4924994;29;20081;-78
2021/09/24 09:30:11;;;;;;;4.22;1.02;;;;;;;17.77;100.00;97776.28;4928853;29;20047;-79
2021/09/24 09:32:42;;;;;;;5.10;0.90;;;;;;;17.53;100.00;97768.28;4922021;29;20296;-80
2021/09/24 09:35:10;;;;;;;1.77;0.80;;;;;;;17.35;100.00;97776.06;4915928;29;20100;-78
2021/09/24 09:37:39;;;;;;;5.68;1.23;;;;;;;17.21;100.00;97768.31;4915337;29;20516;-78
2021/09/24 09:40:13;;;;;;;4.57;1.23;;;;;;;16.98;100.00;97775.53;4920337;29;20313;-79
2021/09/24 09:42:42;;;;;;;6.43;1.10;;;;;;;17.05;100.00;97775.75;4916756;29;20044;-79
2021/09/24 09:45:12;;;;;;;3.60;1.10;;;;;;;17.02;100.00;97775.63;4911444;29;20473;-79
2021/09/24 09:47:42;;;;;;;3.45;1.00;;;;;;;16.69;100.00;97775.97;4909780;29;20044;-77
2021/09/24 09:50:14;;;;;;;4.43;0.93;;;;;;;16.79;100.00;97770.00;4910419;29;20048;-77
2021/09/24 09:53:01;;;;;;;2.88;1.05;;;;;;;16.54;100.00;97784.94;4911958;29;20124;-78
2021/09/24 09:55:32;;;;;;;6.18;0.93;;;;;;;16.40;100.00;97792.72;4912301;29;20422;-81
2021/09/24 09:58:03;;;;;;;6.72;1.23;;;;;;;16.17;100.00;97784.28;4898621;29;20055;-78
2021/09/24 10:00:31;;;;;;;3.35;1.00;;;;;;;16.03;100.00;97795.59;4930282;29;20043;-79
2021/09/24 10:03:05;;;;;;;4.82;1.10;;;;;;;16.17;100.00;97787.03;4923956;29;20552;-80
2021/09/24 10:05:37;;;;;;;;;;;;;;;16.56;100.00;97782.66;4915375;29;20452;-78
2021/09/24 10:08:20;;;;;;;5.97;1.90;;;;;;;16.78;100.00;97785.59;4897229;29;19933;-78
2021/09/24 10:11:07;;;;;;;4.13;1.30;;;;;;;17.00;100.00;97778.75;4911829;29;20051;-79
2021/09/24 10:13:48;;;;;;;6.60;1.10;;;;;;;16.96;100.00;97786.03;4916987;29;20052;-80
2021/09/24 10:16:14;;;;;;;6.78;1.58;;;;;;;17.05;100.00;97781.22;4914711;29;20062;-80
2021/09/24 10:18:41;;;;;;;4.38;1.38;;;;;;;17.49;100.00;97784.63;4914889;29;20055;-79
2021/09/24 10:21:08;;;;;;;3.83;1.52;;;;;;;17.36;100.00;97770.25;4914568;29;20645;-78
2021/09/24 10:23:35;;;;;;;3.15;1.30;;;;;;;17.53;100.00;97776.50;4914064;29;20064;-79
2021/09/24 10:26:15;;;;;;;5.65;1.50;;;;;;;17.23;100.00;97781.63;4914787;29;20054;-80
2021/09/24 10:28:42;;;;;;;10.48;1.60;;;;;;;17.02;100.00;97775.63;4913030;29;20063;-79
2021/09/24 10:31:15;;;;;;;4.97;1.50;;;;;;;16.73;100.00;97776.84;4912805;29;20056;-79
2021/09/24 10:33:55;;;;;;;4.57;1.45;;;;;;;16.87;100.00;97776.44;4910053;29;20128;-78
2021/09/24 10:36:46;;;;;;;6.75;1.48;;;;;;;17.05;100.00;97770.28;4911677;29;20493;-77
2021/09/24 10:39:28;;;;;;;5.40;1.60;;;;;;;17.06;100.00;97769.09;4923898;29;20044;-79
2021/09/24 10:42:37;;;;;;;7.15;1.60;;;;;;;16.88;100.00;97767.88;4922676;29;20032;-78
2021/09/24 10:45:12;;;;;;;5.88;1.35;;;;;;;16.90;100.00;97771.06;4873287;29;20056;-81
2021/09/24 10:47:57;;;;;;;6.00;1.40;;;;;;;16.54;100.00;97763.09;4892058;29;20053;-81
2021/09/24 10:50:30;;;;;;;2.88;1.27;;;;;;;16.50;100.00;97773.88;4928364;29;20055;-78
2021/09/24 10:53:24;;;;;;;3.38;1.20;;;;;;;16.67;100.00;97768.13;4918657;29;20055;-77
2021/09/24 10:55:54;;;;;;;4.55;1.45;;;;;;;17.08;100.00;97766.84;4913549;29;20052;-76
2021/09/24 10:58:26;;;;;;;6.53;1.50;;;;;;;17.05;100.00;97770.28;4896059;29;20070;-78
2021/09/24 11:00:57;;;;;;;4.00;1.05;;;;;;;17.23;100.00;97768.75;4896431;29;20504;-76
2021/09/24 11:03:26;;;;;;;4.28;1.25;;;;;;;17.21;100.00;97751.91;4914025;29;20429;-78
2021/09/24 11:06:12;;;;;;;4.53;1.30;;;;;;;17.25;100.00;97766.44;4915387;29;20056;-77
2021/09/24 11:08:43;;;;;;;3.85;1.20;;;;;;;16.75;100.00;97767.16;4927035;29;20052;-78
2021/09/24 11:11:10;;;;;;;5.20;1.20;;;;;;;16.80;100.00;97766.91;4915715;29;20107;-76
2021/09/24 11:13:52;;;;;;;4.00;1.20;;;;;;;16.59;100.00;97771.84;4895896;29;20071;-78
2021/09/24 11:16:48;;;;;;;3.13;1.13;;;;;;;16.42;100.00;97768.56;4897981;29;20532;-78
2021/09/24 11:19:50;;;;;;;4.82;1.20;;;;;;;16.23;100.00;97772.75;4917597;29;20058;-79
2021/09/24 11:22:38;;;;;;;3.70;1.40;;;;;;;16.30;100.00;97779.56;4858217;29;20067;-78
2021/09/24 11:25:11;;;;;;;4.97;1.77;;;;;;;16.61;100.00;97766.00;4894811;29;20385;-79
2021/09/24 11:27:44;;;;;;;6.57;1.77;;;;;;;16.58;100.00;97764.75;4914371;29;20051;-78
2021/09/24 11:30:24;;;;;;;3.38;1.55;;;;;;;16.52;100.00;97777.09;4912311;29;20449;-77
2021/09/24 11:32:58;;;;;;;3.72;1.55;;;;;;;16.51;100.00;97775.50;4912330;29;20052;-77
2021/09/24 11:35:51;;;;;;;3.22;1.45;;;;;;;16.46;100.00;97783.94;4896270;29;20423;-79
2021/09/24 11:38:21;;;;;;;4.45;1.58;;;;;;;16.47;100.00;97774.59;4895405;29;20052;-77
2021/09/24 11:40:57;;;;;;;3.75;1.50;;;;;;;17.36;100.00;97763.97;4894625;29;20044;-78
2021/09/24 11:43:30;;;;;;;3.63;1.25;;;;;;;17.65;100.00;97776.41;4912163;29;20509;-78
2021/09/24 11:46:11;;;;;;;6.38;1.65;;;;;;;19.65;100.00;97762.13;4913502;29;20471;-77
2021/09/24 11:48:37;;;;;;;3.17;1.30;;;;;;;22.19;100.00;97754.34;4913565;29;20556;-80
2021/09/24 11:51:16;;;;;;;2.72;0.80;;;;;;;23.30;93.33;97750.63;4913230;29;20048;-79
2021/09/24 11:53:44;;;;;;;2.95;0.93;;;;;;;24.62;76.33;97744.38;4896514;29;20063;-79
2021/09/24 11:56:11;;;;;;;3.42;1.00;;;;;;;24.17;67.71;97741.41;4910633;23;20064;-81
2021/09/24 11:58:38;;;;;;;3.75;1.00;;;;;;;21.88;94.95;97755.00;4895270;29;20059;-82
2021/09/24 12:01:05;;;;;;;5.03;1.00;;;;;;;20.33;100.00;97754.41;4882192;29;20048;-81
2021/09/24 12:03:32;;;;;;;2.10;0.70;;;;;;;19.20;100.00;97752.78;4897448;29;20071;-81
2021/09/24 12:06:09;;;;;;;2.33;0.70;;;;;;;18.86;100.00;97739.28;4898083;29;20080;-80
2021/09/24 12:08:45;;;;;;;3.80;0.88;;;;;;;18.01;100.00;97745.88;4897175;29;20048;-80